Aérodrome :
LOGIN :

S'inscrire | Disclaimer

   EN    FR    IT 

 










Légende :    VFR   VFR Marginal   IFR   IFR Intensif   IFR Très Intensif
Visi : 
Plafond : 
>= 8 km
>= 3000ft
5 à 8 km
1000 à 3000 ft
1500m à 5 km
500 à 1000 ft
800 à 1500m
200 à 500 ft
< 800m
< 200 ft
Symboles :   Orages  Brouillard  Fortes neiges  Fortes précipitations  Vent > 20 kt
SIGMETs :   Divers  Orages  Givrage  Turbulence  Onde Orograph.  Cendres Volcan.






- Altitude de l'aérodrome : 3 ft
- Code IATA : DHR


EHKD - Den Helder De Kooy

DERNIER METAR :
  • 060055Z AUTO 13009KT 100V160 9999 FEW077 SCT083 OVC099 18/15 Q1000 BLU

METARs EXPIRÉS :
  • 060025Z AUTO 11008KT 080V140 9999 FEW015CB BKN074 BKN081 18/15 Q1001 BLU
  • 060012Z AUTO 12010KT 090V160 8000 -RA BKN041 BKN053 BKN063 18/15 Q1001 BLU
  • 060008Z AUTO 13010KT 100V160 5000 RA BKN041 OVC053 18/15 Q1001 WHT
  • 052355Z AUTO 12010KT 090V150 9999 FEW046 SCT073 OVC080 18/15 Q1001 BLU
  • 052325Z AUTO 13008KT 090V150 9999 SCT048 BKN053 BKN058 18/15 Q1001 BLU
  • 052255Z AUTO 12008KT 9999 NCD 18/15 Q1001 BLU
  • 052225Z AUTO 12008KT 9999 BKN280 18/15 Q1002 BLU

TAF TAF EHKD
Valide du 06 à 01h jusqu'au 06 à 13h UTC


060035Z 0601/0613 16009KT 9999 BKN040
TEMPO 0601/0612 4000 SHRA RA SCT008 BKN015 SCT030CB
PROB40
TEMPO 0601/0612 2000 +SHRA TSRA BKN005 BKN012 SCT025CB
BECMG 0603/0606 21015G25KT



MET'MAP, la Météo Aéronautique d'un coup d'oeil ! - Copyright ORBIFLY Décembre 2007 - Disclaimer

ORBIFLY MET'MAP TEAM :

Programmation & Développement : Alexandra Zaïnal
Sur une idée originale de : Baudouin d'Aumeries
Assistance à la programmation : Marc-Olivier Méhu
Soutien technique & logistique : Manuel Goepfert

Contact : metmap@orbifly.com




SOURCES & CREDITS :

   NOAA